createdAt,value
2018-10-17T00:00:27.874Z,23.00
2018-10-17T00:02:56.165Z,25.63
2018-10-17T00:05:24.435Z,22.73
2018-10-17T00:07:53.099Z,20.73
2018-10-17T00:10:21.390Z,19.57
2018-10-17T00:12:50.182Z,22.23
2018-10-17T00:15:18.882Z,23.10
2018-10-17T00:17:47.159Z,21.10
2018-10-17T00:20:15.470Z,22.13
2018-10-17T00:22:43.811Z,23.93
2018-10-17T00:25:12.356Z,20.77
2018-10-17T00:27:40.862Z,21.37
2018-10-17T00:30:11.178Z,22.00
2018-10-17T00:32:40.109Z,19.67
2018-10-17T00:35:09.169Z,20.17
2018-10-17T00:37:37.601Z,22.23
2018-10-17T00:40:06.099Z,22.23
2018-10-17T00:42:34.630Z,22.73
2018-10-17T00:45:03.028Z,23.97
2018-10-17T00:47:31.615Z,23.83
2018-10-17T00:49:59.974Z,20.70
2018-10-17T00:52:28.255Z,22.23
2018-10-17T00:54:56.942Z,22.50
2018-10-17T00:57:25.447Z,20.27
2018-10-17T00:59:53.741Z,24.27
2018-10-17T01:02:22.718Z,20.57
2018-10-17T01:04:51.579Z,21.10
2018-10-17T01:07:20.713Z,24.00
2018-10-17T01:09:49.038Z,19.57
2018-10-17T01:12:17.322Z,20.43
2018-10-17T01:14:45.932Z,22.30
2018-10-17T01:17:14.291Z,21.30
2018-10-17T01:19:42.736Z,20.73
2018-10-17T01:22:11.332Z,22.37
2018-10-17T01:24:39.854Z,19.27
2018-10-17T01:27:08.476Z,22.57
2018-10-17T01:29:36.895Z,24.87
2018-10-17T01:32:05.591Z,20.10
2018-10-17T01:34:34.358Z,22.40
2018-10-17T01:37:02.868Z,19.23
2018-10-17T01:39:32.011Z,20.13
2018-10-17T01:42:00.290Z,21.97
2018-10-17T01:44:28.914Z,21.37
2018-10-17T01:46:57.206Z,21.03
2018-10-17T01:49:25.821Z,21.47
2018-10-17T01:51:54.506Z,19.27
2018-10-17T01:54:23.006Z,22.80
2018-10-17T01:56:51.725Z,21.37
2018-10-17T01:59:20.187Z,19.50
2018-10-17T02:01:48.475Z,24.60
2018-10-17T02:04:16.754Z,19.80
2018-10-17T02:06:45.026Z,21.27
2018-10-17T02:09:13.463Z,24.00
2018-10-17T02:11:41.898Z,19.80
2018-10-17T02:14:10.187Z,22.00
2018-10-17T02:16:38.496Z,20.27
2018-10-17T02:19:07.153Z,23.13
2018-10-17T02:21:35.600Z,23.10
2018-10-17T02:24:04.398Z,20.40
2018-10-17T02:26:32.718Z,22.97
2018-10-17T02:29:01.033Z,21.10
2018-10-17T02:31:29.476Z,20.37
2018-10-17T02:33:57.759Z,21.77
2018-10-17T02:36:26.070Z,18.67
2018-10-17T02:38:54.504Z,22.13
2018-10-17T02:41:22.809Z,23.73
2018-10-17T02:43:51.098Z,19.27
2018-10-17T02:46:19.820Z,22.70
2018-10-17T02:48:48.491Z,20.80
2018-10-17T02:51:16.749Z,19.73
2018-10-17T02:53:45.096Z,21.60
2018-10-17T02:56:13.407Z,20.57
2018-10-17T02:58:41.692Z,22.73
2018-10-17T03:01:10.093Z,25.93
2018-10-17T03:03:39.447Z,23.13
2018-10-17T03:06:07.731Z,23.43
2018-10-17T03:08:36.162Z,23.10
2018-10-17T03:11:05.577Z,22.57
2018-10-17T03:13:34.034Z,23.00
2018-10-17T03:16:03.774Z,24.57
2018-10-17T03:18:32.895Z,22.17
2018-10-17T03:21:01.174Z,19.37
2018-10-17T03:23:29.466Z,26.67
2018-10-17T03:25:57.827Z,22.03
2018-10-17T03:28:26.339Z,23.27
2018-10-17T03:30:54.798Z,21.47
2018-10-17T03:33:23.271Z,23.70
2018-10-17T03:35:51.626Z,21.83
2018-10-17T03:38:20.116Z,21.80
2018-10-17T03:40:48.732Z,20.67
2018-10-17T03:43:17.286Z,25.23
2018-10-17T03:45:46.040Z,22.73
2018-10-17T03:48:14.344Z,25.43
2018-10-17T03:50:42.742Z,24.10
2018-10-17T03:53:11.079Z,24.70
2018-10-17T03:55:39.544Z,25.07
2018-10-17T03:58:07.873Z,24.30
2018-10-17T04:00:36.259Z,22.67
2018-10-17T04:03:05.725Z,22.37
2018-10-17T04:05:34.227Z,22.23
2018-10-17T04:08:02.506Z,23.77
2018-10-17T04:10:30.779Z,25.63
2018-10-17T04:12:59.077Z,23.73
2018-10-17T04:15:27.669Z,22.17
2018-10-17T04:17:56.049Z,24.00
2018-10-17T04:20:24.347Z,23.20
2018-10-17T04:22:55.280Z,24.90
2018-10-17T04:25:23.945Z,24.33
2018-10-17T04:27:53.163Z,23.00
2018-10-17T04:30:21.509Z,21.83
2018-10-17T04:32:49.842Z,24.23
2018-10-17T04:35:18.719Z,23.13
2018-10-17T04:37:47.754Z,22.10
2018-10-17T04:40:16.070Z,25.60
2018-10-17T04:42:44.490Z,24.07
2018-10-17T04:45:12.892Z,20.93
2018-10-17T04:47:41.248Z,25.47
2018-10-17T04:50:12.032Z,23.30
2018-10-17T04:52:40.718Z,22.73
2018-10-17T04:55:10.218Z,22.17
2018-10-17T04:57:38.702Z,22.37
2018-10-17T05:00:10.491Z,22.77
2018-10-17T05:02:39.363Z,23.57
2018-10-17T05:05:08.118Z,28.57
2018-10-17T05:07:36.585Z,25.67
2018-10-17T05:10:05.165Z,24.10
2018-10-17T05:12:33.812Z,24.80
2018-10-17T05:15:02.105Z,28.53
2018-10-17T05:17:30.665Z,25.23
2018-10-17T05:19:59.431Z,27.60
2018-10-17T05:22:27.744Z,22.23
2018-10-17T05:24:56.104Z,27.93
2018-10-17T05:27:24.619Z,35.00
2018-10-17T05:29:53.081Z,46.77
2018-10-17T05:32:21.458Z,35.53
2018-10-17T05:34:49.884Z,39.23
2018-10-17T05:37:18.631Z,33.00
2018-10-17T05:39:47.095Z,26.67
2018-10-17T05:42:15.431Z,26.40
2018-10-17T05:44:44.049Z,24.23
2018-10-17T05:47:12.627Z,28.97
2018-10-17T05:49:41.248Z,30.47
2018-10-17T05:52:09.660Z,29.83
2018-10-17T05:54:37.978Z,30.57
2018-10-17T05:57:06.359Z,28.27
2018-10-17T05:59:34.655Z,30.23
2018-10-17T06:02:07.763Z,30.23
2018-10-17T06:04:36.247Z,27.77
2018-10-17T06:07:04.772Z,25.97
2018-10-17T06:09:33.208Z,29.40
2018-10-17T06:12:01.635Z,26.40
2018-10-17T06:14:30.015Z,29.00
2018-10-17T06:16:58.430Z,28.53
2018-10-17T06:19:26.874Z,29.67
2018-10-17T06:21:55.182Z,31.20
2018-10-17T06:24:23.570Z,31.47
2018-10-17T06:26:51.923Z,69.13
2018-10-17T06:29:20.332Z,66.73
2018-10-17T06:31:48.662Z,48.30
2018-10-17T06:34:17.108Z,39.83
2018-10-17T06:36:45.669Z,35.73
2018-10-17T06:39:13.958Z,28.17
2018-10-17T06:41:42.323Z,23.90
2018-10-17T06:44:10.882Z,27.07
2018-10-17T06:46:39.307Z,27.57
2018-10-17T06:49:08.096Z,24.97
2018-10-17T06:51:36.544Z,23.63
2018-10-17T06:54:05.129Z,23.57
2018-10-17T06:56:33.998Z,27.40
2018-10-17T06:59:02.494Z,38.30
2018-10-17T07:01:31.018Z,34.03
2018-10-17T07:04:00.074Z,32.20
2018-10-17T07:06:28.383Z,27.30
2018-10-17T07:08:56.702Z,25.10
2018-10-17T07:11:24.983Z,24.80
2018-10-17T07:13:53.542Z,22.43
2018-10-17T07:16:22.303Z,26.50
2018-10-17T07:18:50.602Z,25.67
2018-10-17T07:21:18.952Z,23.53
2018-10-17T07:23:47.258Z,27.30
2018-10-17T07:26:15.608Z,20.83
2018-10-17T07:28:44.056Z,29.25
2018-10-17T07:31:12.610Z,24.30
2018-10-17T07:33:41.172Z,24.07
2018-10-17T07:36:09.511Z,22.70
2018-10-17T07:38:37.999Z,23.07
2018-10-17T07:41:06.756Z,21.50
2018-10-17T07:43:35.074Z,23.27
2018-10-17T07:46:03.454Z,23.17
2018-10-17T07:48:31.734Z,20.87
2018-10-17T07:51:00.347Z,23.50
2018-10-17T07:53:28.682Z,19.50
2018-10-17T07:55:57.170Z,22.70
2018-10-17T07:58:25.518Z,18.47
2018-10-17T08:00:54.179Z,17.93
2018-10-17T08:03:22.875Z,17.87
2018-10-17T08:05:51.995Z,21.45
2018-10-17T08:08:20.321Z,21.90
2018-10-17T08:10:48.663Z,20.17
2018-10-17T08:13:16.968Z,18.07
2018-10-17T08:15:45.443Z,18.07
2018-10-17T08:18:14.212Z,20.87
2018-10-17T08:20:42.663Z,22.57
2018-10-17T08:23:10.982Z,21.63
2018-10-17T08:25:39.288Z,18.97
2018-10-17T08:28:07.610Z,27.70
2018-10-17T08:30:36.030Z,20.80
2018-10-17T08:33:04.488Z,20.13
2018-10-17T08:35:32.906Z,25.73
2018-10-17T08:38:01.636Z,21.83
2018-10-17T08:40:30.154Z,24.20
2018-10-17T08:42:58.557Z,25.90
2018-10-17T08:45:26.982Z,20.27
2018-10-17T08:47:55.410Z,20.43
2018-10-17T08:50:23.722Z,17.63
2018-10-17T08:52:52.003Z,21.33
2018-10-17T08:55:20.346Z,19.83
2018-10-17T08:57:48.674Z,16.63
2018-10-17T09:00:17.529Z,19.67
2018-10-17T09:02:46.279Z,18.00
2018-10-17T09:05:14.694Z,18.77
2018-10-17T09:07:43.079Z,18.23
2018-10-17T09:10:11.952Z,18.10
2018-10-17T09:12:40.281Z,15.60
2018-10-17T09:15:08.779Z,20.20
2018-10-17T09:17:37.246Z,18.67
2018-10-17T09:20:07.853Z,18.30
2018-10-17T09:22:36.207Z,18.83
2018-10-17T09:25:05.155Z,17.17
2018-10-17T09:27:33.804Z,22.07
2018-10-17T09:30:02.175Z,20.03
2018-10-17T09:32:30.663Z,19.03
2018-10-17T09:34:59.107Z,16.67
2018-10-17T09:37:27.711Z,18.57
2018-10-17T09:39:56.105Z,17.03
2018-10-17T09:42:24.578Z,15.53
2018-10-17T09:44:53.182Z,19.40
2018-10-17T09:47:21.483Z,18.57
2018-10-17T09:49:50.147Z,17.43
2018-10-17T09:52:18.670Z,17.03
2018-10-17T09:54:47.077Z,15.30
2018-10-17T09:57:15.362Z,16.30
2018-10-17T09:59:43.688Z,19.57
2018-10-17T10:02:12.034Z,18.00
2018-10-17T10:04:40.551Z,15.70
2018-10-17T10:07:08.999Z,14.50
2018-10-17T10:09:36.531Z,16.13
2018-10-17T10:12:05.190Z,17.03
2018-10-17T10:14:33.684Z,17.27
2018-10-17T10:17:02.089Z,16.67
2018-10-17T10:19:30.542Z,16.20
2018-10-17T10:21:58.981Z,17.37
2018-10-17T10:24:27.524Z,14.53
2018-10-17T10:26:56.253Z,17.07
2018-10-17T10:29:31.360Z,14.50
2018-10-17T10:31:59.958Z,19.17
2018-10-17T10:34:28.298Z,16.13
2018-10-17T10:36:56.594Z,18.73
2018-10-17T10:39:24.907Z,15.50
2018-10-17T10:41:53.219Z,19.47
2018-10-17T10:44:21.734Z,15.97
2018-10-17T10:46:50.076Z,17.53
2018-10-17T10:49:18.557Z,17.60
2018-10-17T10:51:47.025Z,17.67
2018-10-17T10:54:15.493Z,13.07
2018-10-17T10:56:43.890Z,16.60
2018-10-17T10:59:12.189Z,15.40
2018-10-17T11:01:41.072Z,20.07
2018-10-17T11:04:09.447Z,18.33
2018-10-17T11:06:37.870Z,15.40
2018-10-17T11:09:07.576Z,22.47
2018-10-17T11:11:36.608Z,18.37
2018-10-17T11:14:05.111Z,21.77
2018-10-17T11:16:33.462Z,18.43
2018-10-17T11:19:02.393Z,17.07
2018-10-17T11:21:31.274Z,15.20
2018-10-17T11:23:59.726Z,14.87
2018-10-17T11:26:28.739Z,14.05
2018-10-17T11:28:57.687Z,17.20
2018-10-17T11:31:26.235Z,13.35
2018-10-17T11:33:55.291Z,15.45
2018-10-17T11:36:23.590Z,16.20
2018-10-17T11:38:52.161Z,13.30
2018-10-17T11:41:20.944Z,14.30
2018-10-17T11:43:50.130Z,13.62
2018-10-17T11:46:18.485Z,14.07
2018-10-17T11:48:47.418Z,17.77
2018-10-17T11:51:16.460Z,13.60
2018-10-17T11:53:44.955Z,16.67
2018-10-17T11:56:13.306Z,12.73
2018-10-17T11:58:42.294Z,16.37
2018-10-17T12:01:11.266Z,13.88
2018-10-17T12:03:39.678Z,15.03
2018-10-17T12:06:08.747Z,15.95
2018-10-17T12:08:37.728Z,14.20
2018-10-17T12:11:06.277Z,16.90
2018-10-17T12:13:35.276Z,22.93
2018-10-17T12:16:03.610Z,20.10
2018-10-17T12:18:32.235Z,15.67
2018-10-17T12:21:00.731Z,16.47
2018-10-17T12:23:29.099Z,17.73
2018-10-17T12:25:58.065Z,13.70
2018-10-17T12:28:27.085Z,17.42
2018-10-17T12:30:55.493Z,14.50
2018-10-17T12:33:24.439Z,17.25
2018-10-17T12:35:53.436Z,16.05
2018-10-17T12:38:21.803Z,13.95
2018-10-17T12:40:50.603Z,15.32
2018-10-17T12:43:19.504Z,14.45
2018-10-17T12:45:48.436Z,13.45
2018-10-17T12:48:17.234Z,14.07
2018-10-17T12:50:46.735Z,17.45
2018-10-17T12:53:15.599Z,15.23
2018-10-17T12:55:44.866Z,14.85
2018-10-17T12:58:13.258Z,10.80
2018-10-17T13:00:41.722Z,14.43
2018-10-17T13:03:10.046Z,11.87
2018-10-17T13:05:38.334Z,14.23
2018-10-17T13:08:07.580Z,11.57
2018-10-17T13:10:36.238Z,15.35
2018-10-17T13:13:05.538Z,12.20
2018-10-17T13:15:34.350Z,13.18
2018-10-17T13:18:03.223Z,13.70
2018-10-17T13:20:31.518Z,13.37
2018-10-17T13:22:59.837Z,11.23
2018-10-17T13:25:28.293Z,15.47
2018-10-17T13:27:57.178Z,15.98
2018-10-17T13:30:26.053Z,15.50
2018-10-17T13:32:54.425Z,15.63
2018-10-17T13:35:22.772Z,11.00
2018-10-17T13:37:51.634Z,15.23
2018-10-17T13:40:19.924Z,13.72
2018-10-17T13:42:48.250Z,17.77
2018-10-17T13:45:16.535Z,14.90
2018-10-17T13:47:44.953Z,16.80
2018-10-17T13:50:13.861Z,14.30
2018-10-17T13:52:42.166Z,15.90
2018-10-17T13:55:11.075Z,16.52
2018-10-17T13:57:40.186Z,13.05
2018-10-17T14:00:10.889Z,15.73
2018-10-17T14:02:40.079Z,12.20
2018-10-17T14:05:08.683Z,11.63
2018-10-17T14:07:36.976Z,14.90
2018-10-17T14:10:05.455Z,13.57
2018-10-17T14:12:34.476Z,15.50
2018-10-17T14:15:03.236Z,15.50
2018-10-17T14:17:31.738Z,13.03
2018-10-17T14:20:00.863Z,10.87
2018-10-17T14:22:29.234Z,13.10
2018-10-17T14:24:57.641Z,11.73
2018-10-17T14:27:26.139Z,17.17
2018-10-17T14:29:58.439Z,17.53
2018-10-17T14:32:27.085Z,19.43
2018-10-17T14:34:55.433Z,21.93
2018-10-17T14:37:23.731Z,22.57
2018-10-17T14:39:52.212Z,21.90
2018-10-17T14:42:20.602Z,26.00
2018-10-17T14:44:49.046Z,18.83
2018-10-17T14:47:17.375Z,20.93
2018-10-17T14:49:45.900Z,24.77
2018-10-17T14:52:14.187Z,21.37
2018-10-17T14:54:42.507Z,24.80
2018-10-17T14:57:10.831Z,25.93
2018-10-17T14:59:39.146Z,22.73
2018-10-17T15:02:07.582Z,22.70
2018-10-17T15:04:35.928Z,19.20
2018-10-17T15:07:04.250Z,21.30
2018-10-17T15:09:32.566Z,22.53
2018-10-17T15:12:00.918Z,20.90
2018-10-17T15:14:29.307Z,23.27
2018-10-17T15:16:58.083Z,26.20
2018-10-17T15:19:26.663Z,25.57
2018-10-17T15:21:54.949Z,22.33
2018-10-17T15:24:23.230Z,26.57
2018-10-17T15:43:27.509Z,24.05
2018-10-17T15:48:53.779Z,20.70
2018-10-17T15:51:22.461Z,19.37
2018-10-17T15:53:51.244Z,22.93
2018-10-17T15:56:21.333Z,25.83
2018-10-17T15:58:50.989Z,23.43
2018-10-17T16:01:19.661Z,21.67
2018-10-17T16:03:48.879Z,21.70
2018-10-17T16:06:17.797Z,24.70
2018-10-17T16:08:53.118Z,19.90
2018-10-17T16:11:21.942Z,26.20
2018-10-17T16:13:50.913Z,23.40
2018-10-17T16:16:19.571Z,24.23
2018-10-17T16:18:48.215Z,24.63
2018-10-17T16:21:17.205Z,28.00
2018-10-17T16:23:45.922Z,29.33
2018-10-17T16:26:15.646Z,28.93
2018-10-17T16:28:45.026Z,30.87
2018-10-17T16:31:13.888Z,30.47
2018-10-17T16:33:42.696Z,26.03
2018-10-17T16:36:11.638Z,22.77
2018-10-17T16:38:40.600Z,25.00
2018-10-17T16:41:09.559Z,22.27
2018-10-17T16:43:39.942Z,25.83
2018-10-17T16:46:09.011Z,24.90
2018-10-17T16:48:37.722Z,30.20
2018-10-17T16:51:06.747Z,30.70
2018-10-17T16:53:35.554Z,30.70
2018-10-17T16:56:04.329Z,38.33
2018-10-17T16:58:33.098Z,47.07
2018-10-17T17:01:02.268Z,39.37
2018-10-17T17:03:31.027Z,37.63
2018-10-17T17:05:59.761Z,28.73
2018-10-17T17:08:28.438Z,29.63
2018-10-17T17:10:57.129Z,30.10
2018-10-17T17:13:25.822Z,34.03
2018-10-17T17:15:54.535Z,27.13
2018-10-17T17:18:23.275Z,37.13
2018-10-17T17:20:52.215Z,36.20
2018-10-17T17:23:21.222Z,47.80
2018-10-17T17:25:49.988Z,80.47
2018-10-17T17:28:18.659Z,77.67
2018-10-17T17:30:48.063Z,55.13
2018-10-17T17:33:16.765Z,45.37
2018-10-17T17:35:45.570Z,49.10
2018-10-17T17:38:14.313Z,43.53
2018-10-17T17:40:42.973Z,46.77
2018-10-17T17:43:11.790Z,47.97
2018-10-17T17:45:40.519Z,46.23
2018-10-17T17:48:09.217Z,48.17
2018-10-17T17:50:37.944Z,42.50
2018-10-17T17:53:06.586Z,41.60
2018-10-17T17:55:35.302Z,42.67
2018-10-17T17:58:04.136Z,55.57
2018-10-17T18:00:33.171Z,49.57
2018-10-17T18:03:02.002Z,49.13
2018-10-17T18:05:30.651Z,48.93
2018-10-17T18:07:59.308Z,46.60
2018-10-17T18:10:27.987Z,43.80
2018-10-17T18:12:56.630Z,45.67
2018-10-17T18:15:25.350Z,46.37
2018-10-17T18:17:54.103Z,45.83
2018-10-17T18:20:22.904Z,44.33
2018-10-17T18:22:51.570Z,41.63
2018-10-17T18:25:20.230Z,37.10
2018-10-17T18:27:49.446Z,38.97
2018-10-17T18:30:18.123Z,38.23
2018-10-17T18:32:46.779Z,36.80
2018-10-17T18:35:15.607Z,38.07
2018-10-17T18:37:44.368Z,37.40
2018-10-17T18:40:13.280Z,41.00
2018-10-17T18:42:42.211Z,36.50
2018-10-17T18:45:11.966Z,37.87
2018-10-17T18:47:40.877Z,40.40
2018-10-17T18:50:09.821Z,44.73
2018-10-17T18:52:38.939Z,51.67
2018-10-17T18:55:08.202Z,44.07
2018-10-17T18:57:37.004Z,43.57
2018-10-17T19:00:07.963Z,44.57
2018-10-17T19:02:36.674Z,41.70
2018-10-17T19:05:05.516Z,41.10
2018-10-17T19:07:34.187Z,46.30
2018-10-17T19:10:02.902Z,45.67
2018-10-17T19:12:31.616Z,46.27
2018-10-17T19:15:00.671Z,47.43
2018-10-17T19:17:29.538Z,42.63
2018-10-17T19:19:58.206Z,44.17
2018-10-17T19:22:29.121Z,43.20
2018-10-17T19:24:57.810Z,46.37
2018-10-17T19:27:27.120Z,44.13
2018-10-17T19:29:55.908Z,42.07
2018-10-17T19:32:25.142Z,40.67
2018-10-17T19:34:53.878Z,43.47
2018-10-17T19:37:22.729Z,39.33
2018-10-17T19:39:51.407Z,42.83
2018-10-17T19:42:20.098Z,48.13
2018-10-17T19:44:48.896Z,44.33
2018-10-17T19:47:17.752Z,45.73
2018-10-17T19:49:46.607Z,50.10
2018-10-17T19:52:15.451Z,52.73
2018-10-17T19:54:44.147Z,46.80
2018-10-17T19:57:13.010Z,44.27
2018-10-17T19:59:42.093Z,45.37
2018-10-17T20:02:10.927Z,45.83
2018-10-17T20:04:39.819Z,45.27
2018-10-17T20:07:08.828Z,46.67
2018-10-17T20:09:37.646Z,45.87
2018-10-17T20:12:07.782Z,47.93
2018-10-17T20:14:36.554Z,49.40
2018-10-17T20:17:06.187Z,55.73
2018-10-17T20:19:34.934Z,49.50
2018-10-17T20:22:03.723Z,48.93
2018-10-17T20:24:32.558Z,47.73
2018-10-17T20:27:03.465Z,47.03
2018-10-17T20:29:32.479Z,47.07
2018-10-17T20:32:01.362Z,47.60
2018-10-17T20:34:30.215Z,47.27
2018-10-17T20:36:59.117Z,50.23
2018-10-17T20:39:28.032Z,48.30
2018-10-17T20:41:56.905Z,48.67
2018-10-17T20:44:25.841Z,50.83
2018-10-17T20:46:54.653Z,45.73
2018-10-17T20:49:23.460Z,52.17
2018-10-17T20:51:52.193Z,48.10
